MDT,Max TemperatureF,Mean TemperatureF,Min TemperatureF,Max Dew PointF,MeanDew PointF,Min DewpointF,Max Humidity, Mean Humidity, Min Humidity, Max Sea Level PressureIn, Mean Sea Level PressureIn, Min Sea Level PressureIn, Max VisibilityMiles, Mean VisibilityMiles, Min VisibilityMiles, Max Wind SpeedMPH, Mean Wind SpeedMPH, Max Gust SpeedMPH,PrecipitationIn, CloudCover, Events, WindDirDegrees
2014-5-1,69,48,28,20,13,5,61,27,4,30.24,30.14,29.99,10,10,10,26,8,39,0.00,0,,343
2014-5-2,73,52,30,18,15,12,46,21,4,30.17,30.07,29.97,10,10,10,21,8,32,0.00,0,,323
2014-5-3,81,59,37,21,15,7,46,20,4,30.07,29.98,29.89,10,10,10,13,6,22,0.00,0,,13
2014-5-4,82,60,39,21,13,6,38,16,4,30.02,29.94,29.85,10,10,10,15,6,24,0.00,0,,5
2014-5-5,82,60,39,21,12,0,35,16,4,30.00,29.86,29.71,10,10,10,17,7,29,0.00,0,,316
2014-5-6,73,62,52,18,11,3,23,12,4,29.73,29.62,29.51,10,10,10,20,9,26,0.00,0,,225
2014-5-7,64,54,44,31,19,9,56,25,8,29.83,29.71,29.62,10,9,1,31,13,40,0.01,3,,246
2014-5-8,63,51,39,33,26,17,77,42,13,30.01,29.90,29.84,10,10,10,21,6,30,0.01,3,Rain,296
2014-5-9,72,54,37,27,21,17,62,30,6,30.02,29.92,29.80,10,10,8,22,9,32,0.00,0,,314
2014-5-10,77,56,36,28,23,18,51,23,7,29.86,29.71,29.51,10,10,10,17,7,23,0.00,1,,253
2014-5-11,64,52,41,43,29,17,86,40,10,29.93,29.59,29.46,10,10,7,31,14,38,0.02,4,Rain-Thunderstorm,251
2014-5-12,55,44,34,36,26,20,83,50,17,30.19,30.03,29.87,10,10,10,24,13,31,0.00,5,,290
2014-5-13,57,44,30,27,20,10,61,37,13,30.40,30.31,30.17,10,10,10,17,6,22,0.00,2,,3
2014-5-14,64,48,32,26,18,12,70,31,6,30.46,30.36,30.22,10,10,10,17,7,25,0.00,0,,127
2014-5-15,75,54,32,19,17,11,50,22,5,30.29,30.19,30.08,10,10,10,26,9,34,0.00,0,,318
2014-5-16,82,60,39,25,19,13,51,20,4,30.12,30.00,29.87,10,10,10,25,9,37,0.00,0,,332
2014-5-17,86,64,43,28,17,10,39,16,4,29.92,29.84,29.76,10,10,10,24,7,29,0.00,0,,14
2014-5-18,84,66,48,25,13,-3,32,13,4,29.87,29.76,29.67,10,10,10,20,7,29,0.00,0,,22
2014-5-19,84,62,39,18,10,6,27,10,4,29.89,29.76,29.71,10,10,10,24,10,32,0.00,0,,217
2014-5-20,82,64,46,16,11,4,24,11,4,29.91,29.84,29.78,10,10,10,20,9,30,0.00,0,,229
2014-5-21,82,70,57,24,18,15,26,13,4,30.04,29.85,29.78,10,10,10,26,10,36,0.00,1,,154
2014-5-22,80,70,60,32,24,17,31,17,6,30.08,29.91,29.82,10,10,10,23,7,36,0.02,4,,215
2014-5-23,69,59,48,47,43,35,87,60,22,30.13,30.02,29.95,10,10,10,30,12,39,0.12,4,Rain-Thunderstorm,116
2014-5-24,66,52,39,45,38,29,92,57,16,30.05,29.99,29.93,10,10,10,16,7,23,0.00,1,Rain,91
2014-5-25,60,53,46,44,42,39,90,71,36,30.13,30.05,29.96,10,10,7,9,4,,0.08,7,Rain,263
2014-5-26,77,60,43,44,40,34,86,50,12,30.10,30.03,29.96,10,10,10,18,5,25,0.00,2,,257
2014-5-27,89,68,46,44,33,21,68,31,4,30.10,30.00,29.93,10,10,10,18,7,24,0.00,0,,314
2014-5-28,91,70,50,39,30,22,54,23,4,30.04,29.92,29.80,10,10,10,18,8,29,0.00,0,,94
2014-5-29,88,77,66,44,36,28,42,23,6,30.00,29.88,29.81,10,10,10,25,8,34,0.00,4,,268
2014-5-30,84,70,57,46,37,25,60,32,5,30.01,29.95,29.85,10,10,10,13,5,17,0.00,2,,359
2014-5-31,91,72,55,41,29,19,49,21,4,29.95,29.85,29.75,10,10,10,17,8,23,0.00,0,,215